Time;durP1;ratioP1;P1;durP2;ratioP2;P2;SDS_P1;SDS_P2;PMS_P1;PMS_P2;Temp;Humidity;BMP_temperature;BMP_pressure;BME280_temperature;BME280_humidity;BME280_pressure;Samples;Min_cycle;Max_cycle;Signal;HPM_P1;HPM_P2
2022/10/27 00:00:50;;;;;;;4.35;1.65;;;13.60;99.90;;;;;;6290740;22;20075;-94
2022/10/27 00:03:17;;;;;;;3.83;1.67;;;13.60;99.90;;;;;;6315653;22;20019;-91
2022/10/27 00:05:44;;;;;;;3.05;1.60;;;13.60;99.90;;;;;;6288494;22;20025;-91
2022/10/27 00:08:22;;;;;;;4.32;1.88;;;13.60;99.90;;;;;;6288978;22;20022;-91
2022/10/27 00:11:02;;;;;;;3.47;1.67;;;13.60;99.90;;;;;;6290525;22;20018;-91
2022/10/27 00:13:36;;;;;;;5.75;1.70;;;13.50;99.90;;;;;;6316191;22;20089;-93
2022/10/27 00:16:24;;;;;;;4.80;1.73;;;13.60;99.90;;;;;;6290125;22;20025;-93
2022/10/27 00:18:50;;;;;;;5.15;1.80;;;13.50;99.90;;;;;;6289129;22;20016;-93
2022/10/27 00:59:56;;;;;;;7.05;1.58;;;13.50;99.90;;;;;;6218533;22;20353;-93
2022/10/27 01:02:28;;;;;;;3.80;1.65;;;13.50;99.90;;;;;;6204462;22;20027;-93
2022/10/27 01:05:06;;;;;;;3.63;1.52;;;13.50;99.90;;;;;;6201344;22;20023;-92
2022/10/27 03:27:38;;;;;;;6.20;2.90;;;13.70;99.90;;;;;;6212222;23;20028;-96
2022/10/27 03:30:06;;;;;;;8.18;3.63;;;13.60;99.90;;;;;;6133047;23;20018;-93
2022/10/27 03:32:32;;;;;;;6.32;3.13;;;13.60;99.90;;;;;;6132809;23;20021;-92
2022/10/27 03:34:57;;;;;;;7.47;3.05;;;13.60;99.90;;;;;;6132905;23;20009;-92
2022/10/27 03:37:23;;;;;;;5.45;2.85;;;13.60;99.90;;;;;;6133815;23;20021;-92
2022/10/27 03:39:49;;;;;;;5.53;3.13;;;13.60;99.90;;;;;;6133634;22;20009;-93
2022/10/27 03:42:17;;;;;;;5.45;2.72;;;13.60;99.90;;;;;;6132916;23;20021;-93
2022/10/27 03:44:46;;;;;;;6.60;2.70;;;13.60;99.90;;;;;;6108627;23;20049;-96
2022/10/27 03:47:14;;;;;;;5.18;2.65;;;13.60;99.90;;;;;;6132827;23;20017;-93
2022/10/27 03:49:40;;;;;;;5.55;2.70;;;13.50;99.90;;;;;;6108443;23;20017;-94
2022/10/27 03:52:05;;;;;;;5.17;2.23;;;13.50;99.90;;;;;;6134016;23;20070;-93
2022/10/27 05:27:13;;;;;;;4.88;2.63;;;12.50;99.90;;;;;;6340678;22;20019;-93
2022/10/27 13:51:45;;;;;;;1.70;0.75;;;17.80;99.90;;;;;;6232735;22;20027;-92
2022/10/27 13:55:23;;;;;;;1.90;0.60;;;17.90;99.90;;;;;;6286400;22;20015;-94
2022/10/27 13:58:01;;;;;;;3.20;0.75;;;17.90;99.90;;;;;;6247355;22;20015;-92
2022/10/27 14:00:53;;;;;;;2.75;0.70;;;17.90;99.90;;;;;;6287944;22;20018;-92
2022/10/27 14:03:51;;;;;;;2.70;0.55;;;17.80;99.90;;;;;;6287716;22;20046;-93
2022/10/27 14:06:23;;;;;;;;;;;17.80;99.90;;;;;;6227958;22;20064;-92
2022/10/27 14:08:52;;;;;;;2.13;0.70;;;17.80;99.90;;;;;;6287725;22;19921;-93
2022/10/27 14:11:25;;;;;;;2.25;0.90;;;17.80;99.90;;;;;;6287355;22;20099;-95
2022/10/27 14:14:37;;;;;;;1.70;0.60;;;17.80;99.90;;;;;;6289409;22;20429;-95
2022/10/27 14:17:19;;;;;;;2.88;0.80;;;17.70;99.90;;;;;;6316247;22;20009;-93
2022/10/27 14:20:01;;;;;;;1.42;0.60;;;17.70;99.90;;;;;;6311507;22;20022;-95
2022/10/27 14:22:37;;;;;;;2.55;0.80;;;17.70;99.90;;;;;;6291582;22;20021;-96
2022/10/27 14:25:27;;;;;;;1.48;0.60;;;17.70;99.90;;;;;;6341498;22;20018;-96
2022/10/27 14:28:24;;;;;;;3.90;0.70;;;17.60;99.90;;;;;;6294709;22;20015;-95
2022/10/27 14:31:19;;;;;;;2.63;0.90;;;17.60;99.90;;;;;;6326609;22;20011;-94
2022/10/27 14:34:20;;;;;;;2.10;0.82;;;17.50;99.90;;;;;;6303882;22;20019;-95
2022/10/27 14:36:59;;;;;;;3.67;0.80;;;17.40;99.90;;;;;;6297879;22;20021;-94
2022/10/27 14:39:40;;;;;;;3.63;0.90;;;17.40;99.90;;;;;;6343155;22;20003;-95
2022/10/27 14:42:22;;;;;;;1.83;0.73;;;17.30;99.90;;;;;;6274912;22;20037;-96
2022/10/27 14:45:20;;;;;;;1.95;0.75;;;17.30;99.90;;;;;;6299831;22;20018;-95
2022/10/27 14:48:14;;;;;;;2.85;0.90;;;17.20;99.90;;;;;;6325299;22;20049;-96
2022/10/27 14:50:40;;;;;;;2.95;1.27;;;17.20;99.90;;;;;;6321144;22;20011;-96
2022/10/27 14:53:18;;;;;;;;;;;17.10;99.90;;;;;;6240015;22;20031;-95
2022/10/27 14:55:44;;;;;;;2.05;0.70;;;17.10;99.90;;;;;;6207159;23;19919;-95
2022/10/27 14:58:21;;;;;;;2.80;0.80;;;17.10;99.90;;;;;;6190002;23;20013;-95
2022/10/27 15:00:50;;;;;;;3.03;0.80;;;17.10;99.90;;;;;;6191818;23;20062;-96
2022/10/27 15:03:16;;;;;;;1.73;0.68;;;17.10;99.90;;;;;;6190018;23;20024;-96
2022/10/27 15:05:47;;;;;;;1.58;0.65;;;17.10;99.90;;;;;;6189101;23;20012;-96
2022/10/27 15:08:27;;;;;;;2.63;0.70;;;17.10;99.90;;;;;;6191738;23;20012;-95
2022/10/27 16:20:02;;;;;;;2.25;0.73;;;16.80;99.90;;;;;;6154512;23;20030;-94
2022/10/27 16:23:22;;;;;;;2.75;0.73;;;16.80;99.90;;;;;;6224478;23;20024;-92
2022/10/27 16:25:48;;;;;;;2.22;0.55;;;16.70;99.90;;;;;;6195833;23;20016;-95
2022/10/27 17:09:33;;;;;;;1.73;0.65;;;16.20;99.90;;;;;;6262726;22;20036;-94
2022/10/27 18:17:29;;;;;;;2.65;0.80;;;15.80;99.90;;;;;;6183837;22;20024;-93
2022/10/27 18:33:38;;;;;;;5.00;0.93;;;15.80;99.90;;;;;;6217010;22;20019;-96
2022/10/27 19:08:20;;;;;;;3.40;1.20;;;16.00;99.90;;;;;;6324784;22;20024;-95
2022/10/27 19:46:00;;;;;;;4.47;1.55;;;15.90;99.90;;;;;;6313757;22;20450;-96
2022/10/27 19:48:35;;;;;;;5.13;1.77;;;15.90;99.90;;;;;;6276249;22;20031;-95
2022/10/27 19:51:18;;;;;;;4.57;2.08;;;16.00;99.90;;;;;;6314045;22;20046;-94
2022/10/27 19:53:47;;;;;;;4.43;1.50;;;15.90;99.90;;;;;;6287019;22;20535;-94
2022/10/27 19:56:17;;;;;;;3.63;1.73;;;15.90;99.90;;;;;;6261994;22;20064;-96
2022/10/27 19:58:48;;;;;;;6.38;1.77;;;16.00;99.90;;;;;;6284170;22;20030;-94
2022/10/27 20:01:19;;;;;;;6.13;1.70;;;16.00;99.90;;;;;;6260056;22;20401;-93
2022/10/27 20:03:46;;;;;;;4.07;1.40;;;16.00;99.90;;;;;;6286282;22;20026;-93
2022/10/27 20:06:12;;;;;;;4.30;1.77;;;16.00;99.90;;;;;;6261017;22;20021;-94
2022/10/27 20:08:40;;;;;;;5.22;1.70;;;16.00;99.90;;;;;;6286441;22;20018;-93
2022/10/27 20:11:12;;;;;;;5.15;1.70;;;16.00;99.90;;;;;;6286245;22;20022;-94
2022/10/27 20:13:43;;;;;;;3.85;1.80;;;16.00;99.90;;;;;;6286621;22;20402;-94
2022/10/27 20:16:10;;;;;;;4.25;1.70;;;16.10;99.90;;;;;;6286645;22;20018;-94
2022/10/27 20:18:36;;;;;;;5.32;2.03;;;16.10;99.90;;;;;;6286952;22;20014;-95
2022/10/27 20:21:30;;;;;;;5.32;1.80;;;16.10;99.90;;;;;;6287158;22;20042;-92
2022/10/27 20:53:28;;;;;;;5.13;2.00;;;16.30;99.90;;;;;;6216023;22;20020;-95
2022/10/27 20:55:55;;;;;;;6.18;2.00;;;16.30;99.90;;;;;;6161573;23;20400;-95
2022/10/27 20:58:22;;;;;;;3.88;1.70;;;16.30;99.90;;;;;;6185940;23;20012;-94
2022/10/27 21:00:48;;;;;;;4.95;1.70;;;16.30;99.90;;;;;;6186218;23;20032;-94
2022/10/27 21:03:15;;;;;;;5.22;1.98;;;16.30;99.90;;;;;;6186070;23;20107;-94
2022/10/27 21:05:41;;;;;;;4.47;1.67;;;16.20;99.90;;;;;;6186088;23;20017;-94
2022/10/27 21:08:07;;;;;;;4.60;2.00;;;16.20;99.90;;;;;;6185754;23;20017;-93
2022/10/27 21:10:42;;;;;;;5.90;2.00;;;16.20;99.90;;;;;;6185571;23;20016;-94
2022/10/27 21:20:37;;;;;;;5.85;2.30;;;16.20;99.90;;;;;;6156618;23;20120;-94
2022/10/27 21:23:44;;;;;;;;;;;;;;;;;;;;;
2022/10/27 21:27:14;;;;;;;4.43;1.95;;;16.20;99.90;;;;;;6179827;22;20354;-94
2022/10/27 21:29:49;;;;;;;6.00;1.80;;;16.20;99.90;;;;;;6137629;23;20013;-94
2022/10/27 21:32:26;;;;;;;4.78;2.22;;;16.20;99.90;;;;;;6129590;23;20021;-94
2022/10/27 21:34:52;;;;;;;5.38;2.38;;;16.30;99.90;;;;;;6150127;23;20430;-94
2022/10/27 21:37:17;;;;;;;4.28;2.10;;;16.30;99.90;;;;;;6185506;23;20029;-93
2022/10/27 21:39:43;;;;;;;5.47;2.10;;;16.30;99.90;;;;;;6160633;23;20044;-93
2022/10/27 21:42:09;;;;;;;8.43;2.30;;;16.30;99.90;;;;;;6185560;23;20056;-94
2022/10/27 21:44:35;;;;;;;6.15;2.55;;;16.30;99.90;;;;;;6160766;23;20008;-94
2022/10/27 21:47:00;;;;;;;5.70;2.40;;;16.30;99.90;;;;;;6160754;23;20021;-94
2022/10/27 21:49:26;;;;;;;4.53;1.92;;;16.30;99.90;;;;;;6160431;23;20038;-95
2022/10/27 21:51:52;;;;;;;5.07;2.15;;;16.30;99.90;;;;;;6161024;23;20088;-94
2022/10/27 21:54:17;;;;;;;5.50;1.88;;;16.30;99.90;;;;;;6185701;23;20039;-93
2022/10/27 21:56:43;;;;;;;6.13;2.00;;;16.30;99.90;;;;;;6187402;23;20073;-93
2022/10/27 21:59:10;;;;;;;6.88;2.60;;;16.30;99.90;;;;;;6188699;23;20125;-94
2022/10/27 22:01:36;;;;;;;;;;;16.30;99.90;;;;;;6187229;23;20012;-92
2022/10/27 22:04:02;;;;;;;6.72;2.22;;;16.30;99.90;;;;;;6185932;23;19916;-94
2022/10/27 22:06:32;;;;;;;10.93;3.05;;;16.30;99.90;;;;;;6186241;23;20024;-92
2022/10/27 22:16:59;;;;;;;4.90;2.40;;;16.30;99.90;;;;;;6207360;22;20120;-95
2022/10/27 22:19:25;;;;;;;5.95;2.33;;;16.20;99.90;;;;;;6231772;22;20019;-93
2022/10/27 22:27:50;;;;;;;6.85;2.85;;;16.20;99.90;;;;;;6340633;22;20023;-93
2022/10/27 22:30:16;;;;;;;7.40;2.40;;;16.20;99.90;;;;;;6287958;22;20025;-94
2022/10/27 22:56:44;;;;;;;5.45;2.55;;;16.00;99.90;;;;;;6278373;22;20047;-92
2022/10/27 22:59:10;;;;;;;6.85;2.72;;;16.10;99.90;;;;;;6201759;22;20027;-92
2022/10/27 23:12:18;;;;;;;5.20;2.53;;;16.00;99.90;;;;;;6283221;22;20027;-91
2022/10/27 23:14:49;;;;;;;5.85;2.65;;;15.90;99.90;;;;;;6262267;22;20015;-89
2022/10/27 23:17:15;;;;;;;5.57;2.55;;;15.90;99.90;;;;;;6262031;22;20061;-92
2022/10/27 23:56:01;;;;;;;5.60;2.58;;;14.90;99.90;;;;;;6277819;22;20030;-93
2022/10/27 23:58:32;;;;;;;6.57;2.25;;;14.80;99.90;;;;;;6251136;22;20016;-93
